Messwerte Ghazvin

Temperatur

Temperatur
°C
1623450600 3.00 3.00 18
1623454200 4.00 4.00 17
1623457800 5.00 5.00
1623461400 6.00 6.00 15
1623465000 7.00 7.00 15
1623468600 8.00 8.00 20
1623472200 9.00 9.00 21
1623475800 10.00 10.00 24
1623479400 11.00 11.00 27
1623483000 12.00 12.00 29
1623486600 13.00 13.00 31
1623490200 14.00 14.00 33
1623493800 15.00 15.00 35
1623497400 16.00 16.00 35
1623501000 17.00 17.00 36
1623504600 18.00 18.00 36
1623508200 19.00 19.00 32
1623511800 20.00 20.00 28
1623515400 21.00 21.00 25
1623519000 22.00 22.00 23
1623522600 23.00 23.00
1623526200 0.00 0.00 19
1623529800 1.00 1.00 19
1623533400 2.00 2.00

Wir danken unserem Partner:

Aktuellste Messwerte

Wettercharakter
Wetter: meist klar
Temperatur
15 °C
Feuchtigkeit
80 %
Wind
5 km/hWindrichtung: West
Luftdruck
1010 hPa
Messzeit: 13. Juni 2021, 3.30Datenquelle: METAR

Weitere Messstationen in der Nähe

Messstation Temperatur Entfernung
Karadsch 18 °C 91 km
Ramsar - 94 km
Rasht - 111 km
Teheran 27 °C 135 km
Teheran-Robat Karim 24 °C 139 km
Noshahr 23 °C 138 km
Zanjan - 144 km

Wind

Windrichtung Böen Mittelwind
° km/h km/h
1623450600 3.00 2.00 - 3.00 280° 5
1623454200 4.00 3.00 - 4.00 290° 5
1623457800 5.00 4.00 - 5.00
1623461400 6.00 5.00 - 6.00 10° 5
1623465000 7.00 6.00 - 7.00 90° 5
1623468600 8.00 7.00 - 8.00 80° 5
1623472200 9.00 8.00 - 9.00 90° 5
1623475800 10.00 9.00 - 10.00 60° 5
1623479400 11.00 10.00 - 11.00 170° 5
1623483000 12.00 11.00 - 12.00 310° 5
1623486600 13.00 12.00 - 13.00 260° 5
1623490200 14.00 13.00 - 14.00 250° 10
1623493800 15.00 14.00 - 15.00 280° 5
1623497400 16.00 15.00 - 16.00 210° 10
1623501000 17.00 16.00 - 17.00 240° 5
1623504600 18.00 17.00 - 18.00 220° 5
1623508200 19.00 18.00 - 19.00 270° 15
1623511800 20.00 19.00 - 20.00 270° 10
1623515400 21.00 20.00 - 21.00 290° 5
1623519000 22.00 21.00 - 22.00 290° 5
1623522600 23.00 22.00 - 23.00
1623526200 0.00 23.00 - 0.00 280° 5
1623529800 1.00 0.00 - 1.00 280° 5
1623533400 2.00 1.00 - 2.00

Ihre Wetterstation

Fehlt Ihre Wetterstation auf unserem Portal?

Schreiben Sie an network@meteonews.ch

Klima

Wann ist es am wärmsten? Wann regnet es am wenigsten? Unsere Klimadaten geben Auskunft.